createdAt,value
2022-12-04T00:01:28.720Z,15.90
2022-12-04T00:03:58.614Z,15.23
2022-12-04T00:06:25.594Z,15.07
2022-12-04T00:08:53.472Z,14.93
2022-12-04T00:11:23.152Z,15.93
2022-12-04T00:13:49.860Z,15.53
2022-12-04T00:16:22.604Z,16.17
2022-12-04T00:18:49.569Z,15.30
2022-12-04T00:21:18.178Z,14.87
2022-12-04T00:23:45.452Z,15.97
2022-12-04T00:26:17.933Z,15.47
2022-12-04T00:28:46.317Z,15.27
2022-12-04T00:31:16.317Z,15.83
2022-12-04T00:33:43.450Z,15.53
2022-12-04T00:36:13.481Z,16.57
2022-12-04T00:38:40.808Z,15.10
2022-12-04T00:41:13.204Z,15.47
2022-12-04T00:43:40.247Z,15.97
2022-12-04T00:46:10.199Z,16.53
2022-12-04T00:48:38.460Z,16.33
2022-12-04T00:51:07.737Z,16.97
2022-12-04T00:53:34.866Z,16.33
2022-12-04T00:56:07.368Z,16.30
2022-12-04T00:58:34.263Z,15.50
2022-12-04T01:01:07.988Z,16.03
2022-12-04T01:03:35.309Z,16.80
2022-12-04T01:06:08.311Z,16.07
2022-12-04T01:08:35.453Z,15.83
2022-12-04T01:11:06.411Z,16.87
2022-12-04T01:13:33.322Z,16.47
2022-12-04T01:16:03.211Z,16.33
2022-12-04T01:18:30.090Z,16.90
2022-12-04T01:20:57.186Z,17.10
2022-12-04T01:23:24.086Z,16.87
2022-12-04T01:25:55.370Z,16.10
2022-12-04T01:28:24.697Z,14.87
2022-12-04T01:31:00.576Z,16.23
2022-12-04T01:33:28.602Z,15.93
2022-12-04T01:35:57.134Z,16.20
2022-12-04T01:38:24.901Z,15.73
2022-12-04T01:40:52.534Z,15.53
2022-12-04T01:43:20.858Z,16.17
2022-12-04T01:45:50.983Z,15.43
2022-12-04T01:48:24.107Z,16.00
2022-12-04T01:50:58.626Z,15.70
2022-12-04T01:53:25.918Z,15.93
2022-12-04T01:55:53.666Z,15.63
2022-12-04T01:58:27.750Z,15.13
2022-12-04T02:01:01.553Z,16.30
2022-12-04T02:03:30.840Z,15.27
2022-12-04T02:05:57.723Z,16.30
2022-12-04T02:08:25.821Z,15.57
2022-12-04T02:11:21.891Z,16.17
2022-12-04T02:14:05.995Z,15.97
2022-12-04T02:16:38.718Z,16.13
2022-12-04T02:19:20.785Z,16.30
2022-12-04T02:21:52.208Z,16.70
2022-12-04T02:24:25.023Z,16.33
2022-12-04T02:27:32.396Z,16.43
2022-12-04T02:30:05.880Z,16.80
2022-12-04T02:32:35.243Z,16.10
2022-12-04T02:35:27.816Z,15.97
2022-12-04T02:38:03.354Z,15.73
2022-12-04T02:40:42.964Z,15.27
2022-12-04T02:43:21.346Z,15.03
2022-12-04T02:46:05.199Z,15.10
2022-12-04T02:48:36.051Z,15.60
2022-12-04T02:51:06.738Z,16.03
2022-12-04T02:53:41.521Z,15.87
2022-12-04T02:56:12.685Z,15.40
2022-12-04T02:58:45.725Z,14.57
2022-12-04T03:01:20.627Z,13.97
2022-12-04T03:04:04.516Z,14.70
2022-12-04T03:06:36.627Z,13.83
2022-12-04T03:09:11.838Z,13.77
2022-12-04T03:11:43.971Z,13.20
2022-12-04T03:14:18.127Z,13.43
2022-12-04T03:16:48.277Z,13.70
2022-12-04T03:19:21.422Z,12.93
2022-12-04T03:21:52.514Z,12.77
2022-12-04T03:24:24.585Z,12.60
2022-12-04T03:27:04.702Z,12.83
2022-12-04T03:30:03.291Z,13.27
2022-12-04T03:32:42.133Z,13.17
2022-12-04T03:35:17.522Z,13.47
2022-12-04T03:38:00.360Z,13.97
2022-12-04T03:41:02.274Z,12.80
2022-12-04T03:43:34.834Z,13.47
2022-12-04T03:46:50.098Z,12.63
2022-12-04T03:49:21.405Z,12.30
2022-12-04T03:51:55.892Z,12.00
2022-12-04T03:54:33.580Z,11.67
2022-12-04T03:57:08.792Z,11.60
2022-12-04T03:59:42.891Z,12.10
2022-12-04T04:02:16.242Z,12.53
2022-12-04T04:04:48.196Z,11.70
2022-12-04T04:07:22.759Z,11.30
2022-12-04T04:09:54.159Z,12.37
2022-12-04T04:12:28.680Z,11.67
2022-12-04T04:15:21.003Z,11.53
2022-12-04T04:18:07.927Z,12.00
2022-12-04T04:21:04.913Z,11.50
2022-12-04T04:23:55.792Z,12.03
2022-12-04T04:26:24.009Z,12.17
2022-12-04T04:28:50.644Z,12.10
2022-12-04T04:31:34.102Z,11.70
2022-12-04T04:34:03.824Z,11.83
2022-12-04T04:37:03.622Z,12.53
2022-12-04T04:39:37.671Z,12.60
2022-12-04T04:42:18.015Z,12.33
2022-12-04T04:44:51.449Z,11.97
2022-12-04T04:47:38.563Z,11.77
2022-12-04T04:50:10.561Z,12.70
2022-12-04T04:52:41.084Z,12.50
2022-12-04T04:55:08.747Z,11.87
2022-12-04T04:57:36.989Z,12.53
2022-12-04T05:00:07.409Z,12.67
2022-12-04T05:02:34.519Z,13.30
2022-12-04T05:05:02.688Z,12.93
2022-12-04T05:07:29.398Z,13.37
2022-12-04T05:09:56.285Z,13.00
2022-12-04T05:12:23.236Z,12.53
2022-12-04T05:14:50.216Z,12.97
2022-12-04T05:17:17.699Z,12.50
2022-12-04T05:19:54.199Z,14.03
2022-12-04T05:22:23.955Z,12.80
2022-12-04T05:24:50.805Z,13.23
2022-12-04T05:27:17.451Z,13.20
2022-12-04T05:29:44.107Z,12.70
2022-12-04T05:32:10.887Z,13.03
2022-12-04T05:34:37.674Z,13.43
2022-12-04T05:37:04.469Z,13.23
2022-12-04T05:39:31.171Z,13.30
2022-12-04T05:41:57.815Z,12.77
2022-12-04T05:44:24.703Z,12.77
2022-12-04T05:46:51.518Z,12.30
2022-12-04T05:49:18.231Z,13.40
2022-12-04T05:51:45.030Z,13.87
2022-12-04T05:54:11.720Z,13.87
2022-12-04T05:56:38.480Z,13.80
2022-12-04T05:59:05.172Z,13.67
2022-12-04T06:01:32.043Z,13.23
2022-12-04T06:03:59.252Z,13.80
2022-12-04T06:06:29.195Z,13.47
2022-12-04T06:08:57.989Z,13.37
2022-12-04T06:11:30.750Z,14.30
2022-12-04T06:13:58.641Z,15.87
2022-12-04T06:16:28.391Z,20.17
2022-12-04T06:18:58.942Z,15.23
2022-12-04T06:21:27.841Z,15.27
2022-12-04T06:23:54.920Z,14.47
2022-12-04T06:26:22.652Z,14.20
2022-12-04T06:28:49.437Z,15.13
2022-12-04T06:31:18.952Z,13.70
2022-12-04T06:33:46.190Z,14.03
2022-12-04T06:36:16.006Z,15.80
2022-12-04T06:38:43.764Z,13.97
2022-12-04T06:41:13.116Z,14.53
2022-12-04T06:43:40.696Z,16.33
2022-12-04T06:46:13.628Z,18.37
2022-12-04T06:48:41.215Z,17.47
2022-12-04T06:51:11.479Z,13.70
2022-12-04T06:53:38.957Z,15.93
2022-12-04T06:56:08.577Z,13.80
2022-12-04T06:58:35.356Z,16.10
2022-12-04T07:01:08.224Z,14.23
2022-12-04T07:03:35.527Z,13.83
2022-12-04T07:06:22.001Z,13.20
2022-12-04T07:08:51.941Z,13.97
2022-12-04T07:11:19.961Z,16.87
2022-12-04T07:13:47.252Z,15.97
2022-12-04T07:16:16.681Z,15.70
2022-12-04T07:18:44.006Z,14.07
2022-12-04T07:21:14.827Z,13.63
2022-12-04T07:23:41.594Z,16.83
2022-12-04T07:26:11.256Z,16.33
2022-12-04T07:28:38.312Z,13.63
2022-12-04T07:31:06.485Z,13.80
2022-12-04T07:33:33.733Z,13.87
2022-12-04T07:36:02.377Z,14.27
2022-12-04T07:38:30.570Z,14.23
2022-12-04T07:40:58.518Z,15.07
2022-12-04T07:43:25.984Z,15.20
2022-12-04T07:45:52.925Z,13.80
2022-12-04T07:48:19.639Z,13.70
2022-12-04T07:50:46.358Z,13.40
2022-12-04T07:53:13.228Z,14.07
2022-12-04T07:55:40.042Z,13.80
2022-12-04T07:58:06.850Z,13.77
2022-12-04T08:00:33.793Z,13.73
2022-12-04T08:03:00.461Z,14.13
2022-12-04T08:05:28.142Z,14.30
2022-12-04T08:07:54.827Z,14.33
2022-12-04T08:10:21.547Z,13.53
2022-12-04T08:12:48.190Z,13.53
2022-12-04T08:15:15.069Z,14.03
2022-12-04T08:17:41.709Z,13.70
2022-12-04T08:20:08.829Z,14.90
2022-12-04T08:22:35.478Z,14.43
2022-12-04T08:25:04.669Z,13.60
2022-12-04T08:27:31.329Z,14.07
2022-12-04T08:29:58.350Z,13.60
2022-12-04T08:32:25.120Z,15.20
2022-12-04T08:34:55.661Z,14.27
2022-12-04T08:37:22.879Z,14.50
2022-12-04T08:39:49.679Z,14.17
2022-12-04T08:42:16.348Z,13.33
2022-12-04T08:44:43.022Z,14.13
2022-12-04T08:47:09.731Z,13.90
2022-12-04T08:49:36.453Z,13.80
2022-12-04T08:52:03.208Z,13.83
2022-12-04T08:54:35.812Z,14.13
2022-12-04T08:57:04.091Z,13.83
2022-12-04T08:59:30.867Z,13.10
2022-12-04T09:01:57.625Z,12.97
2022-12-04T09:04:24.362Z,12.07
2022-12-04T09:06:51.030Z,13.00
2022-12-04T09:09:17.853Z,12.43
2022-12-04T09:11:45.923Z,12.60
2022-12-04T09:14:12.937Z,12.93
2022-12-04T09:16:39.691Z,13.73
2022-12-04T09:19:06.409Z,13.53
2022-12-04T09:21:33.120Z,13.43
2022-12-04T09:24:00.121Z,13.57
2022-12-04T09:26:32.401Z,13.40
2022-12-04T09:29:01.712Z,12.30
2022-12-04T09:31:28.597Z,13.70
2022-12-04T09:33:57.592Z,13.30
2022-12-04T09:36:24.454Z,13.17
2022-12-04T09:38:53.317Z,13.07
2022-12-04T09:41:19.972Z,12.90
2022-12-04T09:43:53.716Z,13.63
2022-12-04T09:46:28.784Z,12.53
2022-12-04T09:48:59.133Z,13.37
2022-12-04T09:51:26.343Z,14.10
2022-12-04T09:53:59.653Z,13.17
2022-12-04T09:56:30.515Z,13.90
2022-12-04T09:59:11.387Z,15.10
2022-12-04T10:01:53.928Z,12.53
2022-12-04T10:04:20.907Z,13.30
2022-12-04T10:07:09.245Z,13.60
2022-12-04T10:09:46.469Z,12.83
2022-12-04T10:12:31.436Z,12.47
2022-12-04T10:15:17.788Z,13.37
2022-12-04T10:18:05.913Z,11.77
2022-12-04T10:21:00.200Z,13.30
2022-12-04T10:24:16.947Z,13.63
2022-12-04T10:26:48.791Z,11.40
2022-12-04T10:29:20.510Z,12.83
2022-12-04T10:31:49.296Z,12.20
2022-12-04T10:34:26.443Z,12.93
2022-12-04T10:36:58.749Z,12.27
2022-12-04T10:39:33.228Z,12.43
2022-12-04T10:42:10.460Z,13.00
2022-12-04T10:44:37.336Z,12.57
2022-12-04T10:47:06.111Z,16.17
2022-12-04T10:49:35.584Z,16.40
2022-12-04T10:52:03.994Z,11.30
2022-12-04T10:54:45.194Z,11.27
2022-12-04T10:57:13.955Z,10.63
2022-12-04T10:59:56.761Z,9.47
2022-12-04T11:02:33.243Z,9.87
2022-12-04T11:05:03.622Z,9.70
2022-12-04T11:07:36.011Z,10.07
2022-12-04T11:10:20.545Z,10.80
2022-12-04T11:13:17.583Z,10.37
2022-12-04T11:15:49.951Z,10.13
2022-12-04T11:18:26.807Z,9.80
2022-12-04T11:21:07.497Z,10.33
2022-12-04T11:23:44.958Z,10.00
2022-12-04T11:26:13.019Z,10.70
2022-12-04T11:28:45.781Z,10.07
2022-12-04T11:31:20.064Z,12.40
2022-12-04T11:33:51.156Z,11.83
2022-12-04T11:36:28.586Z,10.60
2022-12-04T11:39:04.558Z,11.43
2022-12-04T11:41:33.018Z,10.53
2022-12-04T11:44:01.027Z,10.90
2022-12-04T11:46:30.981Z,10.40
2022-12-04T11:48:58.450Z,10.37
2022-12-04T11:51:53.488Z,9.87
2022-12-04T11:54:33.871Z,10.17
2022-12-04T11:57:24.144Z,9.57
2022-12-04T12:00:08.856Z,10.50
2022-12-04T12:03:03.140Z,10.07
2022-12-04T12:05:44.945Z,13.53
2022-12-04T12:08:46.309Z,12.47
2022-12-04T12:11:16.169Z,13.27
2022-12-04T12:14:00.974Z,11.40
2022-12-04T12:16:49.986Z,9.83
2022-12-04T12:19:50.685Z,9.17
2022-12-04T12:22:44.948Z,9.57
2022-12-04T12:25:20.740Z,9.90
2022-12-04T12:28:02.846Z,10.20
2022-12-04T12:30:42.210Z,10.27
2022-12-04T12:33:20.191Z,10.23
2022-12-04T12:36:06.553Z,10.80
2022-12-04T12:38:48.222Z,13.50
2022-12-04T12:41:25.632Z,12.50
2022-12-04T12:44:02.785Z,9.97
2022-12-04T12:46:39.750Z,10.60
2022-12-04T12:49:09.319Z,14.37
2022-12-04T12:51:57.247Z,11.70
2022-12-04T12:54:36.688Z,14.23
2022-12-04T12:57:11.501Z,10.83
2022-12-04T12:59:46.092Z,15.67
2022-12-04T13:02:26.197Z,17.17
2022-12-04T13:04:57.413Z,11.83
2022-12-04T13:07:32.356Z,10.70
2022-12-04T13:10:13.019Z,20.07
2022-12-04T13:13:02.263Z,8.70
2022-12-04T13:15:38.948Z,18.50
2022-12-04T13:18:08.598Z,16.13
2022-12-04T13:20:44.131Z,12.60
2022-12-04T13:23:57.873Z,11.43
2022-12-04T13:26:49.732Z,11.27
2022-12-04T13:29:28.079Z,15.40
2022-12-04T13:31:57.538Z,13.33
2022-12-04T13:34:36.492Z,12.37
2022-12-04T13:37:35.348Z,10.73
2022-12-04T13:40:14.674Z,13.07
2022-12-04T13:42:42.292Z,11.07
2022-12-04T13:45:27.323Z,10.80
2022-12-04T13:48:01.985Z,12.70
2022-12-04T13:50:31.699Z,11.43
2022-12-04T13:52:58.884Z,11.17
2022-12-04T13:55:29.663Z,11.50
2022-12-04T13:57:59.539Z,12.93
2022-12-04T14:00:35.026Z,12.00
2022-12-04T14:03:20.786Z,16.10
2022-12-04T14:05:48.445Z,22.43
2022-12-04T14:08:27.141Z,15.40
2022-12-04T14:10:59.899Z,16.47
2022-12-04T14:13:36.875Z,11.10
2022-12-04T14:16:17.422Z,9.13
2022-12-04T14:18:55.034Z,10.03
2022-12-04T14:21:22.458Z,9.40
2022-12-04T14:23:50.843Z,10.50
2022-12-04T14:27:03.680Z,16.30
2022-12-04T14:29:30.136Z,13.00
2022-12-04T14:32:00.853Z,28.30
2022-12-04T14:34:31.788Z,16.43
2022-12-04T14:36:59.620Z,17.57
2022-12-04T14:39:31.517Z,10.57
2022-12-04T14:42:30.875Z,23.00
2022-12-04T14:45:00.233Z,23.10
2022-12-04T14:47:27.249Z,18.07
2022-12-04T14:50:08.934Z,12.30
2022-12-04T14:52:43.709Z,27.53
2022-12-04T14:55:25.859Z,13.60
2022-12-04T14:57:58.731Z,22.20
2022-12-04T15:00:25.685Z,12.90
2022-12-04T15:02:56.252Z,9.17
2022-12-04T15:05:29.023Z,11.63
2022-12-04T15:08:05.549Z,11.43
2022-12-04T15:10:53.404Z,15.13
2022-12-04T15:13:27.586Z,11.17
2022-12-04T15:15:54.400Z,11.00
2022-12-04T15:18:21.458Z,11.37
2022-12-04T15:20:48.113Z,10.63
2022-12-04T15:23:17.702Z,9.93
2022-12-04T15:25:47.502Z,12.43
2022-12-04T15:28:24.991Z,10.30
2022-12-04T15:30:54.025Z,11.43
2022-12-04T15:33:29.986Z,10.53
2022-12-04T15:36:05.404Z,10.53
2022-12-04T15:38:32.573Z,14.67
2022-12-04T15:41:02.534Z,13.13
2022-12-04T15:43:40.019Z,13.17
2022-12-04T15:46:14.782Z,12.27
2022-12-04T15:48:46.330Z,11.37
2022-12-04T15:51:16.369Z,12.17
2022-12-04T15:53:46.170Z,13.50
2022-12-04T15:56:21.892Z,13.27
2022-12-04T15:58:59.398Z,12.73
2022-12-04T16:01:26.935Z,12.03
2022-12-04T16:03:55.997Z,13.23
2022-12-04T16:06:24.136Z,12.43
2022-12-04T16:09:22.063Z,13.00
2022-12-04T16:12:02.344Z,12.13
2022-12-04T16:14:29.546Z,12.53
2022-12-04T16:17:04.332Z,11.80
2022-12-04T16:19:35.398Z,11.57
2022-12-04T16:22:04.705Z,10.50
2022-12-04T16:24:31.340Z,10.43
2022-12-04T16:27:00.287Z,12.90
2022-12-04T16:29:27.563Z,11.53
2022-12-04T16:31:57.192Z,13.50
2022-12-04T16:34:29.348Z,14.75
2022-12-04T16:36:56.197Z,11.47
2022-12-04T16:39:23.075Z,13.47
2022-12-04T16:41:49.728Z,15.27
2022-12-04T16:44:16.984Z,14.03
2022-12-04T16:46:44.521Z,13.60
2022-12-04T16:49:12.562Z,14.20
2022-12-04T16:51:44.845Z,15.13
2022-12-04T16:54:13.640Z,12.17
2022-12-04T16:56:40.494Z,13.27
2022-12-04T16:59:11.901Z,11.53
2022-12-04T17:01:45.636Z,10.23
2022-12-04T17:04:12.608Z,13.07
2022-12-04T17:06:39.415Z,11.07
2022-12-04T17:09:06.580Z,10.90
2022-12-04T17:11:33.329Z,13.87
2022-12-04T17:14:00.163Z,13.97
2022-12-04T17:16:29.384Z,14.63
2022-12-04T17:18:56.083Z,12.50
2022-12-04T17:21:22.760Z,17.13
2022-12-04T17:23:49.602Z,15.77
2022-12-04T17:26:16.352Z,19.03
2022-12-04T17:28:43.148Z,11.63
2022-12-04T17:31:18.953Z,9.77
2022-12-04T17:33:46.281Z,8.40
2022-12-04T17:36:16.057Z,8.77
2022-12-04T17:38:43.342Z,9.47
2022-12-04T17:41:14.919Z,9.67
2022-12-04T17:43:43.004Z,9.10
2022-12-04T17:46:12.278Z,8.90
2022-12-04T17:48:39.411Z,8.87
2022-12-04T17:51:12.383Z,8.27
2022-12-04T17:53:39.651Z,11.07
2022-12-04T17:56:09.237Z,9.70
2022-12-04T17:58:36.844Z,8.03
2022-12-04T18:01:15.452Z,7.97
2022-12-04T18:03:43.760Z,7.07
2022-12-04T18:06:19.939Z,7.40
2022-12-04T18:08:50.299Z,6.53
2022-12-04T18:11:22.789Z,9.20
2022-12-04T18:13:54.419Z,10.07
2022-12-04T18:16:21.329Z,6.90
2022-12-04T18:18:48.131Z,6.73
2022-12-04T18:21:15.264Z,7.20
2022-12-04T18:23:45.983Z,5.70
2022-12-04T18:26:27.092Z,5.80
2022-12-04T18:28:57.247Z,6.27
2022-12-04T18:31:24.071Z,5.97
2022-12-04T18:33:50.973Z,6.27
2022-12-04T18:36:20.774Z,6.20
2022-12-04T18:38:47.970Z,7.97
2022-12-04T18:41:14.969Z,7.73
